createdAt,value
2018-09-05T00:00:31.566Z,21.68
2018-09-05T00:01:31.639Z,21.68
2018-09-05T00:02:31.504Z,21.68
2018-09-05T00:03:31.622Z,21.68
2018-09-05T00:04:31.525Z,21.68
2018-09-05T00:05:31.520Z,21.67
2018-09-05T00:06:31.712Z,21.68
2018-09-05T00:07:31.640Z,21.68
2018-09-05T00:08:31.549Z,21.68
2018-09-05T00:09:31.617Z,21.69
2018-09-05T00:10:31.542Z,21.68
2018-09-05T00:11:31.490Z,21.68
2018-09-05T00:12:31.587Z,21.68
2018-09-05T00:13:31.701Z,21.68
2018-09-05T00:14:31.610Z,21.68
2018-09-05T00:15:31.520Z,21.67
2018-09-05T00:16:31.646Z,21.67
2018-09-05T00:17:31.622Z,21.67
2018-09-05T00:18:31.567Z,21.67
2018-09-05T00:19:31.495Z,21.66
2018-09-05T00:20:31.551Z,21.67
2018-09-05T00:21:31.694Z,21.68
2018-09-05T00:22:31.822Z,21.68
2018-09-05T00:23:31.621Z,21.67
2018-09-05T00:24:31.528Z,21.67
2018-09-05T00:25:31.631Z,21.67
2018-09-05T00:26:31.876Z,21.67
2018-09-05T00:27:31.627Z,21.67
2018-09-05T00:28:31.626Z,21.66
2018-09-05T00:29:31.838Z,21.67
2018-09-05T00:30:31.750Z,21.66
2018-09-05T00:31:31.562Z,21.68
2018-09-05T00:32:31.680Z,21.67
2018-09-05T00:33:31.571Z,21.67
2018-09-05T00:34:31.629Z,21.67
2018-09-05T00:35:31.654Z,21.67
2018-09-05T00:36:31.672Z,21.66
2018-09-05T00:37:31.594Z,21.67
2018-09-05T00:38:31.516Z,21.67
2018-09-05T00:39:31.590Z,21.66
2018-09-05T00:40:32.096Z,21.67
2018-09-05T00:41:31.558Z,21.67
2018-09-05T00:42:31.573Z,21.66
2018-09-05T00:43:31.726Z,21.67
2018-09-05T00:44:31.848Z,21.67
2018-09-05T00:45:31.774Z,21.67
2018-09-05T00:46:31.568Z,21.66
2018-09-05T00:47:31.681Z,21.67
2018-09-05T00:48:31.547Z,21.67
2018-09-05T00:49:31.662Z,21.66
2018-09-05T00:50:31.708Z,21.66
2018-09-05T00:51:31.558Z,21.66
2018-09-05T00:52:31.699Z,21.66
2018-09-05T00:53:31.678Z,21.67
2018-09-05T00:54:31.720Z,21.66
2018-09-05T00:55:31.630Z,21.66
2018-09-05T00:56:31.460Z,21.66
2018-09-05T00:57:31.552Z,21.66
2018-09-05T00:58:31.457Z,21.65
2018-09-05T00:59:31.800Z,21.65
2018-09-05T01:00:31.428Z,21.66
2018-09-05T01:01:31.654Z,21.66
2018-09-05T01:02:31.614Z,21.66
2018-09-05T01:03:31.586Z,21.66
2018-09-05T01:04:31.567Z,21.64
2018-09-05T01:05:31.612Z,21.65
2018-09-05T01:06:31.500Z,21.65
2018-09-05T01:07:31.564Z,21.65
2018-09-05T01:08:31.589Z,21.66
2018-09-05T01:09:31.631Z,21.65
2018-09-05T01:10:31.565Z,21.65
2018-09-05T01:11:31.643Z,21.65
2018-09-05T01:12:31.629Z,21.65
2018-09-05T01:13:31.654Z,21.65
2018-09-05T01:14:31.683Z,21.65
2018-09-05T01:15:31.566Z,21.65
2018-09-05T01:16:31.554Z,21.65
2018-09-05T01:17:31.509Z,21.65
2018-09-05T01:18:31.567Z,21.65
2018-09-05T01:19:31.518Z,21.65
2018-09-05T01:20:31.584Z,21.65
2018-09-05T01:21:31.591Z,21.65
2018-09-05T01:22:31.435Z,21.64
2018-09-05T01:23:31.573Z,21.64
2018-09-05T01:24:31.497Z,21.64
2018-09-05T01:25:31.588Z,21.64
2018-09-05T01:26:31.614Z,21.64
2018-09-05T01:27:31.567Z,21.65
2018-09-05T01:28:31.525Z,21.65
2018-09-05T01:29:31.626Z,21.65
2018-09-05T01:30:31.533Z,21.64
2018-09-05T01:31:31.582Z,21.64
2018-09-05T01:32:31.535Z,21.66
2018-09-05T01:33:31.548Z,21.65
2018-09-05T01:34:31.817Z,21.65
2018-09-05T01:35:31.641Z,21.66
2018-09-05T01:36:31.629Z,21.65
2018-09-05T01:37:31.725Z,21.65
2018-09-05T01:38:31.648Z,21.64
2018-09-05T01:39:31.704Z,21.64
2018-09-05T01:40:31.531Z,21.64
2018-09-05T01:41:31.397Z,21.65
2018-09-05T01:42:31.646Z,21.64
2018-09-05T01:43:31.576Z,21.65
2018-09-05T01:44:31.442Z,21.65
2018-09-05T01:45:31.496Z,21.65
2018-09-05T01:46:31.560Z,21.64
2018-09-05T01:47:32.136Z,21.65
2018-09-05T01:48:31.651Z,21.63
2018-09-05T01:49:31.497Z,21.64
2018-09-05T01:50:31.379Z,21.64
2018-09-05T01:51:31.666Z,21.65
2018-09-05T01:52:31.639Z,21.64
2018-09-05T01:53:31.581Z,21.64
2018-09-05T01:54:31.586Z,21.64
2018-09-05T01:55:31.567Z,21.64
2018-09-05T01:56:31.735Z,21.64
2018-09-05T01:57:31.569Z,21.64
2018-09-05T01:58:31.638Z,21.63
2018-09-05T01:59:31.570Z,21.63
2018-09-05T02:00:31.628Z,21.63
2018-09-05T02:01:31.437Z,21.63
2018-09-05T02:02:31.686Z,21.62
2018-09-05T02:03:31.695Z,21.63
2018-09-05T02:04:31.632Z,21.62
2018-09-05T02:05:31.354Z,21.62
2018-09-05T02:06:31.657Z,21.62
2018-09-05T02:07:31.892Z,21.63
2018-09-05T02:08:31.798Z,21.63
2018-09-05T02:09:31.790Z,21.62
2018-09-05T02:10:31.540Z,21.63
2018-09-05T02:11:31.594Z,21.63
2018-09-05T02:12:31.657Z,21.62
2018-09-05T02:13:31.457Z,21.62
2018-09-05T02:14:31.620Z,21.63
2018-09-05T02:15:31.577Z,21.61
2018-09-05T02:16:31.845Z,21.62
2018-09-05T02:17:31.530Z,21.63
2018-09-05T02:18:31.595Z,21.61
2018-09-05T02:19:31.894Z,21.62
2018-09-05T02:20:31.601Z,21.62
2018-09-05T02:21:31.642Z,21.61
2018-09-05T02:22:31.606Z,21.61
2018-09-05T02:23:31.415Z,21.62
2018-09-05T02:24:31.566Z,21.61
2018-09-05T02:25:31.455Z,21.62
2018-09-05T02:26:31.611Z,21.61
2018-09-05T02:27:31.591Z,21.61
2018-09-05T02:28:31.670Z,21.62
2018-09-05T02:29:31.569Z,21.62
2018-09-05T02:30:31.417Z,21.63
2018-09-05T02:31:31.626Z,21.62
2018-09-05T02:32:31.478Z,21.62
2018-09-05T02:33:31.509Z,21.6
2018-09-05T02:34:31.473Z,21.61
2018-09-05T02:35:31.561Z,21.61
2018-09-05T02:36:31.550Z,21.61
2018-09-05T02:37:31.523Z,21.61
2018-09-05T02:38:31.527Z,21.62
2018-09-05T02:39:31.684Z,21.61
2018-09-05T02:40:31.613Z,21.62
2018-09-05T02:41:31.409Z,21.62
2018-09-05T02:42:31.523Z,21.62
2018-09-05T02:43:31.512Z,21.61
2018-09-05T02:44:31.361Z,21.6
2018-09-05T02:45:31.453Z,21.6
2018-09-05T02:46:31.538Z,21.61
2018-09-05T02:47:31.428Z,21.61
2018-09-05T02:48:31.562Z,21.61
2018-09-05T02:49:31.565Z,21.61
2018-09-05T02:50:31.364Z,21.6
2018-09-05T02:51:31.489Z,21.6
2018-09-05T02:52:31.561Z,21.61
2018-09-05T02:53:31.450Z,21.61
2018-09-05T02:54:31.793Z,21.61
2018-09-05T02:55:31.610Z,21.61
2018-09-05T02:56:32.052Z,21.61
2018-09-05T02:57:31.358Z,21.61
2018-09-05T02:58:31.546Z,21.62
2018-09-05T02:59:31.862Z,21.61
2018-09-05T03:00:31.619Z,21.62
2018-09-05T03:01:31.388Z,21.61
2018-09-05T03:02:31.625Z,21.61
2018-09-05T03:03:31.656Z,21.61
2018-09-05T03:04:31.587Z,21.62
2018-09-05T03:05:31.711Z,21.61
2018-09-05T03:06:31.707Z,21.6
2018-09-05T03:07:31.599Z,21.61
2018-09-05T03:08:31.821Z,21.6
2018-09-05T03:09:31.660Z,21.6
2018-09-05T03:10:31.398Z,21.61
2018-09-05T03:11:31.831Z,21.61
2018-09-05T03:12:31.325Z,21.6
2018-09-05T03:13:31.559Z,21.61
2018-09-05T03:14:31.506Z,21.62
2018-09-05T03:15:31.428Z,21.62
2018-09-05T03:16:31.434Z,21.6
2018-09-05T03:17:31.750Z,21.61
2018-09-05T03:18:31.563Z,21.6
2018-09-05T03:19:31.538Z,21.61
2018-09-05T03:20:31.609Z,21.61
2018-09-05T03:21:31.594Z,21.59
2018-09-05T03:22:31.648Z,21.6
2018-09-05T03:23:31.691Z,21.6
2018-09-05T03:24:31.737Z,21.59
2018-09-05T03:25:31.614Z,21.59
2018-09-05T03:26:31.372Z,21.6
2018-09-05T03:27:31.848Z,21.58
2018-09-05T03:28:31.459Z,21.61
2018-09-05T03:29:31.647Z,21.6
2018-09-05T03:30:31.645Z,21.6
2018-09-05T03:31:31.563Z,21.59
2018-09-05T03:32:31.731Z,21.61
2018-09-05T03:33:31.594Z,21.58
2018-09-05T03:34:31.588Z,21.6
2018-09-05T03:35:31.318Z,21.59
2018-09-05T03:36:31.610Z,21.58
2018-09-05T03:37:31.436Z,21.6
2018-09-05T03:38:31.584Z,21.61
2018-09-05T03:39:31.665Z,21.6
2018-09-05T03:40:31.682Z,21.6
2018-09-05T03:41:31.666Z,21.6
2018-09-05T03:42:31.532Z,21.59
2018-09-05T03:43:31.574Z,21.59
2018-09-05T03:44:31.816Z,21.6
2018-09-05T03:45:31.451Z,21.59
2018-09-05T03:46:31.851Z,21.59
2018-09-05T03:47:31.699Z,21.6
2018-09-05T03:48:31.409Z,21.6
2018-09-05T03:49:31.340Z,21.59
2018-09-05T03:50:31.411Z,21.59
2018-09-05T03:51:31.438Z,21.6
2018-09-05T03:52:31.946Z,21.59
2018-09-05T03:53:31.370Z,21.6
2018-09-05T03:54:31.596Z,21.6
2018-09-05T03:55:31.797Z,21.59
2018-09-05T03:56:31.650Z,21.59
2018-09-05T03:57:31.521Z,21.59
2018-09-05T03:58:31.573Z,21.6
2018-09-05T03:59:31.957Z,21.6
2018-09-05T04:00:31.644Z,21.6
2018-09-05T04:01:31.560Z,21.6
2018-09-05T04:02:31.669Z,21.59
2018-09-05T04:03:31.421Z,21.59
2018-09-05T04:04:31.522Z,21.58
2018-09-05T04:05:31.606Z,21.6
2018-09-05T04:06:31.595Z,21.58
2018-09-05T04:07:31.591Z,21.58
2018-09-05T04:08:31.337Z,21.58
2018-09-05T04:09:31.590Z,21.58
2018-09-05T04:10:31.577Z,21.58
2018-09-05T04:11:31.400Z,21.59
2018-09-05T04:12:31.709Z,21.59
2018-09-05T04:13:31.790Z,21.59
2018-09-05T04:14:31.562Z,21.59
2018-09-05T04:15:31.749Z,21.57
2018-09-05T04:16:31.700Z,21.58
2018-09-05T04:17:31.610Z,21.59
2018-09-05T04:18:31.411Z,21.58
2018-09-05T04:19:31.473Z,21.58
2018-09-05T04:20:31.537Z,21.59
2018-09-05T04:21:31.501Z,21.59
2018-09-05T04:22:31.528Z,21.58
2018-09-05T04:23:31.421Z,21.56
2018-09-05T04:24:31.761Z,21.56
2018-09-05T04:25:31.577Z,21.56
2018-09-05T04:26:31.657Z,21.56
2018-09-05T04:27:31.508Z,21.56
2018-09-05T04:28:31.478Z,21.58
2018-09-05T04:29:31.480Z,21.58
2018-09-05T04:30:31.342Z,21.58
2018-09-05T04:31:31.565Z,21.57
2018-09-05T04:32:31.455Z,21.57
2018-09-05T04:33:31.802Z,21.56
2018-09-05T04:34:31.527Z,21.58
2018-09-05T04:35:31.347Z,21.58
2018-09-05T04:36:31.332Z,21.57
2018-09-05T04:37:31.378Z,21.58
2018-09-05T04:38:31.377Z,21.57
2018-09-05T04:39:31.504Z,21.59
2018-09-05T04:40:31.391Z,21.58
2018-09-05T04:41:31.331Z,21.59
2018-09-05T04:42:31.365Z,21.58
2018-09-05T04:43:31.352Z,21.59
2018-09-05T04:44:31.363Z,21.58
2018-09-05T04:45:31.912Z,21.59
2018-09-05T04:46:31.584Z,21.59
2018-09-05T04:47:31.590Z,21.59
2018-09-05T04:48:31.596Z,21.58
2018-09-05T04:49:31.774Z,21.59
2018-09-05T04:50:31.498Z,21.57
2018-09-05T04:51:31.573Z,21.58
2018-09-05T04:52:32.010Z,21.58
2018-09-05T04:53:31.507Z,21.57
2018-09-05T04:54:31.541Z,21.58
2018-09-05T04:55:31.585Z,21.58
2018-09-05T04:56:31.654Z,21.58
2018-09-05T04:57:31.681Z,21.57
2018-09-05T04:58:31.710Z,21.58
2018-09-05T04:59:31.798Z,21.58
2018-09-05T05:00:31.396Z,21.57
2018-09-05T05:01:31.434Z,21.59
2018-09-05T05:02:31.742Z,21.58
2018-09-05T05:03:31.371Z,21.57
2018-09-05T05:04:31.384Z,21.58
2018-09-05T05:05:31.514Z,21.59
2018-09-05T05:06:31.436Z,21.59
2018-09-05T05:07:31.424Z,21.57
2018-09-05T05:08:31.629Z,21.58
2018-09-05T05:09:31.354Z,21.58
2018-09-05T05:10:31.564Z,21.6
2018-09-05T05:11:31.375Z,21.58
2018-09-05T05:12:31.659Z,21.58
2018-09-05T05:13:31.486Z,21.58
2018-09-05T05:14:31.382Z,21.57
2018-09-05T05:15:31.616Z,21.58
2018-09-05T05:16:31.367Z,21.58
2018-09-05T05:17:31.645Z,21.57
2018-09-05T05:18:31.649Z,21.58
2018-09-05T05:19:31.623Z,21.57
2018-09-05T05:20:31.407Z,21.57
2018-09-05T05:21:31.606Z,21.58
2018-09-05T05:22:31.522Z,21.58
2018-09-05T05:23:31.604Z,21.58
2018-09-05T05:24:31.610Z,21.57
2018-09-05T05:25:31.642Z,21.57
2018-09-05T05:26:31.574Z,21.57
2018-09-05T05:27:31.778Z,21.57
2018-09-05T05:28:31.382Z,21.59
2018-09-05T05:29:31.553Z,21.58
2018-09-05T05:30:31.393Z,21.57
2018-09-05T05:31:31.528Z,21.59
2018-09-05T05:32:31.717Z,21.58
2018-09-05T05:33:31.666Z,21.57
2018-09-05T05:34:31.545Z,21.58
2018-09-05T05:35:31.675Z,21.58
2018-09-05T05:36:31.730Z,21.59
2018-09-05T05:37:31.328Z,21.58
2018-09-05T05:38:31.580Z,21.58
2018-09-05T05:39:31.533Z,21.57
2018-09-05T05:40:31.527Z,21.58
2018-09-05T05:41:31.760Z,21.57
2018-09-05T05:42:31.865Z,21.58
2018-09-05T05:43:31.370Z,21.59
2018-09-05T05:44:31.436Z,21.58
2018-09-05T05:45:31.524Z,21.57
2018-09-05T05:46:31.392Z,21.58
2018-09-05T05:47:31.648Z,21.59
2018-09-05T05:48:31.361Z,21.58
2018-09-05T05:49:31.320Z,21.57
2018-09-05T05:50:31.435Z,21.58
2018-09-05T05:51:31.563Z,21.59
2018-09-05T05:52:31.398Z,21.57
2018-09-05T05:53:31.601Z,21.58
2018-09-05T05:54:31.383Z,21.58
2018-09-05T05:55:31.312Z,21.58
2018-09-05T05:56:31.330Z,21.58
2018-09-05T05:57:31.663Z,21.57
2018-09-05T05:58:31.431Z,21.57
2018-09-05T05:59:31.312Z,21.57
2018-09-05T06:00:31.415Z,21.58
2018-09-05T06:01:31.546Z,21.59
2018-09-05T06:02:31.600Z,21.58
2018-09-05T06:03:31.543Z,21.57
2018-09-05T06:04:31.474Z,21.58
2018-09-05T06:05:31.402Z,21.58
2018-09-05T06:06:31.732Z,21.58
2018-09-05T06:07:31.539Z,21.57
2018-09-05T06:08:31.686Z,21.56
2018-09-05T06:09:31.525Z,21.56
2018-09-05T06:10:31.581Z,21.58
2018-09-05T06:11:31.627Z,21.58
2018-09-05T06:12:31.338Z,21.57
2018-09-05T06:13:31.596Z,21.59
2018-09-05T06:14:31.386Z,21.57
2018-09-05T06:15:31.711Z,21.58
2018-09-05T06:16:31.713Z,21.57
2018-09-05T06:17:31.545Z,21.56
2018-09-05T06:18:31.606Z,21.56
2018-09-05T06:19:31.506Z,21.56
2018-09-05T06:20:31.395Z,21.58
2018-09-05T06:21:31.661Z,21.57
2018-09-05T06:22:31.677Z,21.57
2018-09-05T06:23:31.479Z,21.56
2018-09-05T06:24:31.648Z,21.56
2018-09-05T06:25:31.600Z,21.57
2018-09-05T06:26:31.659Z,21.58
2018-09-05T06:27:31.298Z,21.58
2018-09-05T06:28:31.699Z,21.56
2018-09-05T06:29:31.924Z,21.58
2018-09-05T06:30:31.785Z,21.58
2018-09-05T06:31:31.561Z,21.57
2018-09-05T06:32:31.326Z,21.58
2018-09-05T06:33:31.603Z,21.58
2018-09-05T06:34:31.625Z,21.58
2018-09-05T06:35:31.745Z,21.57
2018-09-05T06:36:31.393Z,21.58
2018-09-05T06:37:31.535Z,21.58
2018-09-05T06:38:31.825Z,21.58
2018-09-05T06:39:31.460Z,21.58
2018-09-05T06:40:31.527Z,21.57
2018-09-05T06:41:31.490Z,21.57
2018-09-05T06:42:31.402Z,21.58
2018-09-05T06:43:31.716Z,21.58
2018-09-05T06:44:31.556Z,21.58
2018-09-05T06:45:32.261Z,21.57
2018-09-05T06:46:31.391Z,21.57
2018-09-05T06:47:31.954Z,21.58
2018-09-05T06:48:31.410Z,21.58
2018-09-05T06:49:31.608Z,21.58
2018-09-05T06:50:31.633Z,21.58
2018-09-05T06:51:31.741Z,21.58
2018-09-05T06:52:31.554Z,21.59
2018-09-05T06:53:31.650Z,21.59
2018-09-05T06:54:31.616Z,21.57
2018-09-05T06:55:31.650Z,21.57
2018-09-05T06:56:31.740Z,21.58
2018-09-05T06:57:31.576Z,21.59
2018-09-05T06:58:31.561Z,21.58
2018-09-05T06:59:31.377Z,21.58
2018-09-05T07:00:31.563Z,21.58
2018-09-05T07:01:31.643Z,21.58
2018-09-05T07:02:31.581Z,21.58
2018-09-05T07:03:31.539Z,21.58
2018-09-05T07:04:31.560Z,21.58
2018-09-05T07:05:31.314Z,21.58
2018-09-05T07:06:31.273Z,21.58
2018-09-05T07:07:31.329Z,21.57
2018-09-05T07:08:31.531Z,21.57
2018-09-05T07:09:31.338Z,21.58
2018-09-05T07:10:31.324Z,21.57
2018-09-05T07:11:31.813Z,21.57
2018-09-05T07:12:31.615Z,21.58
2018-09-05T07:13:31.367Z,21.58
2018-09-05T07:14:31.566Z,21.58
2018-09-05T07:15:31.529Z,21.57
2018-09-05T07:16:31.504Z,21.56
2018-09-05T07:17:31.429Z,21.57
2018-09-05T07:18:31.473Z,21.56
2018-09-05T07:19:31.544Z,21.56
2018-09-05T07:20:31.312Z,21.57
2018-09-05T07:21:31.452Z,21.55
2018-09-05T07:22:31.642Z,21.55
2018-09-05T07:23:31.305Z,21.55
2018-09-05T07:24:31.422Z,21.54
2018-09-05T07:25:31.409Z,21.53
2018-09-05T07:26:31.703Z,21.55
2018-09-05T07:27:31.610Z,21.54
2018-09-05T07:28:31.598Z,21.55
2018-09-05T07:29:31.540Z,21.55
2018-09-05T07:30:31.718Z,21.54
2018-09-05T07:31:31.755Z,21.54
2018-09-05T07:32:31.352Z,21.55
2018-09-05T07:33:31.661Z,21.54
2018-09-05T07:34:31.562Z,21.55
2018-09-05T07:35:31.569Z,21.54
2018-09-05T07:36:31.418Z,21.53
2018-09-05T07:37:31.591Z,21.55
2018-09-05T07:38:31.668Z,21.55
2018-09-05T07:39:31.444Z,21.55
2018-09-05T07:40:31.619Z,21.56
2018-09-05T07:41:31.615Z,21.55
2018-09-05T07:42:31.503Z,21.56
2018-09-05T07:43:31.573Z,21.56
2018-09-05T07:44:31.577Z,21.55
2018-09-05T07:45:31.502Z,21.55
2018-09-05T07:46:31.760Z,21.56
2018-09-05T07:47:31.297Z,21.56
2018-09-05T07:48:31.448Z,21.57
2018-09-05T07:49:31.529Z,21.56
2018-09-05T07:50:31.313Z,21.56
2018-09-05T07:51:31.666Z,21.57
2018-09-05T07:52:31.401Z,21.56
2018-09-05T07:53:31.336Z,21.57
2018-09-05T07:54:31.577Z,21.56
2018-09-05T07:55:31.829Z,21.57
2018-09-05T07:56:31.612Z,21.56
2018-09-05T07:57:31.660Z,21.56
2018-09-05T07:58:31.615Z,21.58
2018-09-05T07:59:31.458Z,21.57
2018-09-05T08:00:31.591Z,21.57
2018-09-05T08:01:31.325Z,21.57
2018-09-05T08:02:31.706Z,21.56
2018-09-05T08:03:31.584Z,21.57
2018-09-05T08:04:31.493Z,21.58
2018-09-05T08:05:31.384Z,21.57
2018-09-05T08:06:31.354Z,21.57
2018-09-05T08:07:31.335Z,21.58
2018-09-05T08:08:32.236Z,21.58
2018-09-05T08:09:31.528Z,21.58
2018-09-05T08:10:31.457Z,21.58
2018-09-05T08:11:31.395Z,21.57
2018-09-05T08:12:31.555Z,21.57
2018-09-05T08:13:31.642Z,21.57
2018-09-05T08:14:31.341Z,21.58
2018-09-05T08:15:31.674Z,21.58
2018-09-05T08:16:31.350Z,21.59
2018-09-05T08:17:31.539Z,21.58
2018-09-05T08:18:31.383Z,21.57
2018-09-05T08:19:31.629Z,21.58
2018-09-05T08:20:31.569Z,21.58
2018-09-05T08:21:31.648Z,21.59
2018-09-05T08:22:31.562Z,21.58
2018-09-05T08:23:31.390Z,21.57
2018-09-05T08:24:31.342Z,21.57
2018-09-05T08:25:31.418Z,21.57
2018-09-05T08:26:31.279Z,21.58
2018-09-05T08:27:31.465Z,21.58
2018-09-05T08:28:31.473Z,21.58
2018-09-05T08:29:31.526Z,21.58
2018-09-05T08:30:31.397Z,21.58
2018-09-05T08:31:31.546Z,21.58
2018-09-05T08:32:31.446Z,21.57
2018-09-05T08:33:31.382Z,21.58
2018-09-05T08:34:31.588Z,21.58
2018-09-05T08:35:31.735Z,21.59
2018-09-05T08:36:31.661Z,21.58
2018-09-05T08:37:31.496Z,21.58
2018-09-05T08:38:31.922Z,21.58
2018-09-05T08:39:31.623Z,21.58
2018-09-05T08:40:31.276Z,21.58
2018-09-05T08:41:31.552Z,21.58
2018-09-05T08:42:31.564Z,21.58
2018-09-05T08:43:31.458Z,21.58
2018-09-05T08:44:31.502Z,21.58
2018-09-05T08:45:31.974Z,21.58
2018-09-05T08:46:31.563Z,21.58
2018-09-05T08:47:31.649Z,21.59
2018-09-05T08:48:31.435Z,21.58
2018-09-05T08:49:31.596Z,21.58
2018-09-05T08:50:31.416Z,21.59
2018-09-05T08:51:31.604Z,21.58
2018-09-05T08:52:31.620Z,21.59
2018-09-05T08:53:31.608Z,21.58
2018-09-05T08:54:31.394Z,21.59
2018-09-05T08:55:31.331Z,21.58
2018-09-05T08:56:31.361Z,21.58
2018-09-05T08:57:31.402Z,21.57
2018-09-05T08:58:31.439Z,21.58
2018-09-05T08:59:31.513Z,21.58
2018-09-05T09:00:31.677Z,21.58
2018-09-05T09:01:32.006Z,21.59
2018-09-05T09:02:31.342Z,21.58
2018-09-05T09:03:31.595Z,21.58
2018-09-05T09:04:31.584Z,21.58
2018-09-05T09:05:31.626Z,21.58
2018-09-05T09:06:31.627Z,21.59
2018-09-05T09:07:31.669Z,21.57
2018-09-05T09:08:31.418Z,21.57
2018-09-05T09:09:31.401Z,21.58
2018-09-05T09:10:31.332Z,21.59
2018-09-05T09:11:31.717Z,21.58
2018-09-05T09:12:31.623Z,21.58
2018-09-05T09:13:32.016Z,21.58
2018-09-05T09:14:31.429Z,21.57
2018-09-05T09:15:31.398Z,21.58
2018-09-05T09:16:31.791Z,21.57
2018-09-05T09:17:31.455Z,21.58
2018-09-05T09:18:31.577Z,21.58
2018-09-05T09:19:31.514Z,21.57
2018-09-05T09:20:31.570Z,21.58
2018-09-05T09:21:31.389Z,21.57
2018-09-05T09:22:31.304Z,21.58
2018-09-05T09:23:31.554Z,21.57
2018-09-05T09:24:31.475Z,21.57
2018-09-05T09:25:31.531Z,21.58
2018-09-05T09:26:31.352Z,21.59
2018-09-05T09:27:31.504Z,21.58
2018-09-05T09:28:31.660Z,21.58
2018-09-05T09:29:31.398Z,21.57
2018-09-05T09:30:31.589Z,21.57
2018-09-05T09:31:31.229Z,21.58
2018-09-05T09:32:31.364Z,21.57
2018-09-05T09:33:32.017Z,21.57
2018-09-05T09:34:31.263Z,21.58
2018-09-05T09:35:31.647Z,21.57
2018-09-05T09:36:31.594Z,21.58
2018-09-05T09:37:31.541Z,21.58
2018-09-05T09:38:31.649Z,21.58
2018-09-05T09:39:31.577Z,21.57
2018-09-05T09:40:31.659Z,21.57
2018-09-05T09:41:31.305Z,21.57
2018-09-05T09:42:31.991Z,21.57
2018-09-05T09:43:31.616Z,21.58
2018-09-05T09:44:31.534Z,21.58
2018-09-05T09:45:31.263Z,21.57
2018-09-05T09:46:31.441Z,21.58
2018-09-05T09:47:31.455Z,21.59
2018-09-05T09:48:31.438Z,21.58
2018-09-05T09:49:31.478Z,21.58
2018-09-05T09:50:31.506Z,21.58
2018-09-05T09:51:31.550Z,21.58
2018-09-05T09:52:31.331Z,21.57
2018-09-05T09:53:31.999Z,21.58
2018-09-05T09:54:31.534Z,21.57
2018-09-05T09:55:31.699Z,21.58
2018-09-05T09:56:31.326Z,21.58
2018-09-05T09:57:31.271Z,21.58
2018-09-05T09:58:31.574Z,21.57
2018-09-05T09:59:31.567Z,21.58
2018-09-05T10:00:31.601Z,21.58
2018-09-05T10:01:31.433Z,21.58
2018-09-05T10:02:31.358Z,21.56
2018-09-05T10:03:31.723Z,21.57
2018-09-05T10:04:31.634Z,21.56
2018-09-05T10:05:31.447Z,21.57
2018-09-05T10:06:31.455Z,21.57
2018-09-05T10:07:31.276Z,21.57
2018-09-05T10:08:31.428Z,21.57
2018-09-05T10:09:31.645Z,21.57
2018-09-05T10:10:31.511Z,21.57
2018-09-05T10:11:31.275Z,21.56
2018-09-05T10:12:31.603Z,21.57
2018-09-05T10:13:31.266Z,21.56
2018-09-05T10:14:31.482Z,21.57
2018-09-05T10:15:31.410Z,21.56
2018-09-05T10:16:31.356Z,21.57
2018-09-05T10:17:31.642Z,21.57
2018-09-05T10:18:31.412Z,21.57
2018-09-05T10:19:31.665Z,21.56
2018-09-05T10:20:31.472Z,21.58
2018-09-05T10:21:31.296Z,21.56
2018-09-05T10:22:31.527Z,21.57
2018-09-05T10:23:31.628Z,21.58
2018-09-05T10:24:31.614Z,21.57
2018-09-05T10:25:31.366Z,21.57
2018-09-05T10:26:31.333Z,21.56
2018-09-05T10:27:31.270Z,21.57
2018-09-05T10:28:31.336Z,21.57
2018-09-05T10:29:31.300Z,21.57
2018-09-05T10:30:31.535Z,21.58
2018-09-05T10:31:31.568Z,21.57
2018-09-05T10:32:31.524Z,21.57
2018-09-05T10:33:31.473Z,21.57
2018-09-05T10:34:31.476Z,21.57
2018-09-05T10:35:31.256Z,21.56
2018-09-05T10:36:31.550Z,21.57
2018-09-05T10:37:31.294Z,21.57
2018-09-05T10:38:31.320Z,21.57
2018-09-05T10:39:31.281Z,21.57
2018-09-05T10:40:31.440Z,21.57
2018-09-05T10:41:31.461Z,21.56
2018-09-05T10:42:31.403Z,21.57
2018-09-05T10:43:31.867Z,21.57
2018-09-05T10:44:31.534Z,21.56
2018-09-05T10:45:31.432Z,21.57
2018-09-05T10:46:31.305Z,21.57
2018-09-05T10:47:31.263Z,21.57
2018-09-05T10:48:31.480Z,21.57
2018-09-05T10:49:31.316Z,21.58
2018-09-05T10:50:31.741Z,21.57
2018-09-05T10:51:31.879Z,21.57
2018-09-05T10:52:31.599Z,21.56
2018-09-05T10:53:31.629Z,21.56
2018-09-05T10:54:32.193Z,21.56
2018-09-05T10:55:31.743Z,21.57
2018-09-05T10:56:31.386Z,21.56
2018-09-05T10:57:31.251Z,21.57
2018-09-05T10:58:31.530Z,21.57
2018-09-05T10:59:31.282Z,21.57
2018-09-05T11:00:31.271Z,21.57
2018-09-05T11:01:31.689Z,21.57
2018-09-05T11:02:31.542Z,21.56
2018-09-05T11:03:31.355Z,21.57
2018-09-05T11:04:31.325Z,21.56
2018-09-05T11:05:31.678Z,21.57
2018-09-05T11:06:31.427Z,21.56
2018-09-05T11:07:33.935Z,21.56
2018-09-05T11:08:31.331Z,21.57
2018-09-05T11:09:31.626Z,21.56
2018-09-05T11:10:31.610Z,21.58
2018-09-05T11:11:31.480Z,21.57
2018-09-05T11:12:31.347Z,21.57
2018-09-05T11:13:31.331Z,21.57
2018-09-05T11:14:31.369Z,21.58
2018-09-05T11:15:31.357Z,21.56
2018-09-05T11:16:31.605Z,21.57
2018-09-05T11:17:31.248Z,21.58
2018-09-05T11:18:31.489Z,21.57
2018-09-05T11:19:31.412Z,21.57
2018-09-05T11:20:31.535Z,21.56
2018-09-05T11:21:31.659Z,21.57
2018-09-05T11:22:31.355Z,21.57
2018-09-05T11:23:31.699Z,21.57
2018-09-05T11:24:31.317Z,21.57
2018-09-05T11:25:31.288Z,21.58
2018-09-05T11:26:31.227Z,21.57
2018-09-05T11:27:31.444Z,21.57
2018-09-05T11:28:31.403Z,21.57
2018-09-05T11:29:31.242Z,21.57
2018-09-05T11:30:31.618Z,21.56
2018-09-05T11:31:31.372Z,21.57
2018-09-05T11:32:31.285Z,21.57
2018-09-05T11:33:31.381Z,21.56
2018-09-05T11:34:31.324Z,21.57
2018-09-05T11:35:31.492Z,21.57
2018-09-05T11:36:31.336Z,21.57
2018-09-05T11:37:31.703Z,21.57
2018-09-05T11:38:31.284Z,21.57
2018-09-05T11:39:31.442Z,21.56
2018-09-05T11:40:31.279Z,21.57
2018-09-05T11:41:31.552Z,21.58
2018-09-05T11:42:31.270Z,21.56
2018-09-05T11:43:31.348Z,21.57
2018-09-05T11:44:31.201Z,21.56
2018-09-05T11:45:31.342Z,21.57
2018-09-05T11:46:31.427Z,21.56
2018-09-05T11:47:31.540Z,21.56
2018-09-05T11:48:31.572Z,21.57
2018-09-05T11:49:31.376Z,21.57
2018-09-05T11:50:31.576Z,21.57
2018-09-05T11:51:31.396Z,21.57
2018-09-05T11:52:31.901Z,21.57
2018-09-05T11:53:31.592Z,21.56
2018-09-05T11:54:31.460Z,21.57
2018-09-05T11:55:31.340Z,21.58
2018-09-05T11:56:31.675Z,21.58
2018-09-05T11:57:31.565Z,21.58
2018-09-05T11:58:31.295Z,21.57
2018-09-05T11:59:31.419Z,21.57
2018-09-05T12:00:31.194Z,21.57
2018-09-05T12:01:31.339Z,21.57
2018-09-05T12:02:31.377Z,21.57
2018-09-05T12:03:31.295Z,21.56
2018-09-05T12:04:31.577Z,21.57
2018-09-05T12:05:31.225Z,21.58
2018-09-05T12:06:31.298Z,21.57
2018-09-05T12:07:31.758Z,21.57
2018-09-05T12:08:31.607Z,21.57
2018-09-05T12:09:31.616Z,21.57
2018-09-05T12:10:31.371Z,21.57
2018-09-05T12:11:31.599Z,21.58
2018-09-05T12:12:31.357Z,21.57
2018-09-05T12:13:31.284Z,21.57
2018-09-05T12:14:31.698Z,21.58
2018-09-05T12:15:31.907Z,21.58
2018-09-05T12:16:31.270Z,21.56
2018-09-05T12:17:31.509Z,21.57
2018-09-05T12:18:31.382Z,21.57
2018-09-05T12:19:31.219Z,21.58
2018-09-05T12:20:31.693Z,21.57
2018-09-05T12:21:31.404Z,21.57
2018-09-05T12:22:31.596Z,21.58
2018-09-05T12:23:31.391Z,21.58
2018-09-05T12:24:31.471Z,21.57
2018-09-05T12:25:31.405Z,21.57
2018-09-05T12:26:31.584Z,21.57
2018-09-05T12:27:31.524Z,21.55
2018-09-05T12:28:31.441Z,21.57
2018-09-05T12:29:31.289Z,21.58
2018-09-05T12:30:31.295Z,21.57
2018-09-05T12:31:31.639Z,21.59
2018-09-05T12:32:31.349Z,21.61
2018-09-05T12:33:31.397Z,21.62
2018-09-05T12:34:31.255Z,21.65
2018-09-05T12:35:31.540Z,21.65
2018-09-05T12:36:31.175Z,21.69
2018-09-05T12:37:31.643Z,21.7
2018-09-05T12:38:31.293Z,21.7
2018-09-05T12:39:31.305Z,21.71
2018-09-05T12:40:31.495Z,21.72
2018-09-05T12:41:31.409Z,21.68
2018-09-05T12:42:31.525Z,21.68
2018-09-05T12:43:31.346Z,21.68
2018-09-05T12:44:31.227Z,21.68
2018-09-05T12:45:31.561Z,21.67
2018-09-05T12:46:31.169Z,21.66
2018-09-05T12:47:31.589Z,21.67
2018-09-05T12:48:31.155Z,21.66
2018-09-05T12:49:31.427Z,21.66
2018-09-05T12:50:31.335Z,21.66
2018-09-05T12:51:31.347Z,21.66
2018-09-05T12:52:31.318Z,21.66
2018-09-05T12:53:31.254Z,21.67